RYR34KC EPKK-LIEO
Flight info
| Callsign | RYR34KC |
|---|---|
| Flight time | 1h 48m |
| Altitude | 38000 |
| Route | BABKO DCT VADEX L856 KOPAT DCT MAREG DCT GIRDA DCT BAXON DCT GITRI |
| Aircraft | B738/M-SDE3FGILRWY/SB1 |
Departure
| Time | 2026-05-08 20:58 |
|---|---|
| Airport | Kraków John Paul II International Airport (EPKK) |
Arrival
| Time | 2026-05-08 22:46 |
|---|---|
| Airport | Olbia Costa Smeralda Airport (LIEO) |
| Time | Latitude | Longitude | Altitude | Speed | Heading |
|---|---|---|---|---|---|
| 2026-05-08 20:34 | 50.07478 | 19.80077 | 799 ft | 0 kts | 168° |
| 2026-05-08 20:52 | 50.07475 | 19.80078 | 799 ft | 2 kts | 168° |
| 2026-05-08 20:52 | 50.07428 | 19.80099 | 799 ft | 12 kts | 150° |
| 2026-05-08 20:52 | 50.07422 | 19.80189 | 799 ft | 9 kts | 78° |
| 2026-05-08 20:52 | 50.07435 | 19.80279 | 799 ft | 8 kts | 77° |
| 2026-05-08 20:53 | 50.07454 | 19.80362 | 799 ft | 8 kts | 50° |
| 2026-05-08 20:53 | 50.07505 | 19.80395 | 799 ft | 8 kts | 16° |
| 2026-05-08 20:53 | 50.07557 | 19.80419 | 799 ft | 8 kts | 16° |
| 2026-05-08 20:53 | 50.07609 | 19.80415 | 799 ft | 7 kts | 349° |
| 2026-05-08 20:54 | 50.07659 | 19.80399 | 799 ft | 7 kts | 348° |
| 2026-05-08 20:54 | 50.07707 | 19.80383 | 799 ft | 7 kts | 348° |
| 2026-05-08 20:54 | 50.07754 | 19.80367 | 799 ft | 7 kts | 348° |
| 2026-05-08 20:54 | 50.07800 | 19.80351 | 799 ft | 7 kts | 348° |
| 2026-05-08 20:55 | 50.07845 | 19.80336 | 799 ft | 7 kts | 348° |
| 2026-05-08 20:55 | 50.07889 | 19.80322 | 799 ft | 6 kts | 348° |
| 2026-05-08 20:55 | 50.07933 | 19.80307 | 799 ft | 6 kts | 348° |
| 2026-05-08 20:55 | 50.07975 | 19.80293 | 798 ft | 6 kts | 348° |
| 2026-05-08 20:56 | 50.08016 | 19.80273 | 799 ft | 5 kts | 324° |
| 2026-05-08 20:56 | 50.08018 | 19.80222 | 799 ft | 5 kts | 255° |
| 2026-05-08 20:56 | 50.08008 | 19.80174 | 799 ft | 0 kts | 258° |
| 2026-05-08 20:57 | 50.08008 | 19.80169 | 799 ft | 3 kts | 258° |
| 2026-05-08 20:57 | 50.07959 | 19.79812 | 799 ft | 70 kts | 258° |
| 2026-05-08 20:57 | 50.07804 | 19.78706 | 801 ft | 136 kts | 258° |
| 2026-05-08 20:57 | 50.07595 | 19.77040 | 1068 ft | 164 kts | 261° |
| 2026-05-08 20:58 | 50.07370 | 19.75282 | 1828 ft | 169 kts | 258° |
| 2026-05-08 20:58 | 50.07108 | 19.73484 | 2596 ft | 170 kts | 257° |
| 2026-05-08 20:58 | 50.06833 | 19.71667 | 3234 ft | 181 kts | 257° |
| 2026-05-08 20:58 | 50.06523 | 19.69601 | 3509 ft | 209 kts | 257° |
| 2026-05-08 20:59 | 50.06052 | 19.67346 | 3679 ft | 231 kts | 239° |
| 2026-05-08 20:59 | 50.04866 | 19.65621 | 4074 ft | 241 kts | 208° |
| 2026-05-08 20:59 | 50.03294 | 19.64700 | 4675 ft | 242 kts | 197° |
| 2026-05-08 20:59 | 50.01667 | 19.64002 | 5290 ft | 244 kts | 195° |
| 2026-05-08 21:00 | 50.00022 | 19.63334 | 5903 ft | 244 kts | 195° |
| 2026-05-08 21:00 | 49.98930 | 19.62891 | 6313 ft | 245 kts | 196° |
| 2026-05-08 21:00 | 49.97276 | 19.62213 | 6887 ft | 246 kts | 197° |
| 2026-05-08 21:00 | 49.95617 | 19.61526 | 7449 ft | 247 kts | 197° |
| 2026-05-08 21:01 | 49.93947 | 19.60828 | 7997 ft | 249 kts | 197° |
| 2026-05-08 21:01 | 49.92268 | 19.60121 | 8562 ft | 250 kts | 198° |
| 2026-05-08 21:01 | 49.90584 | 19.59405 | 9108 ft | 252 kts | 198° |
| 2026-05-08 21:01 | 49.88882 | 19.58683 | 9615 ft | 256 kts | 198° |
| 2026-05-08 21:02 | 49.87127 | 19.57939 | 9943 ft | 270 kts | 198° |
| 2026-05-08 21:02 | 49.85265 | 19.57146 | 10354 ft | 284 kts | 198° |
| 2026-05-08 21:02 | 49.83274 | 19.56297 | 10503 ft | 308 kts | 198° |
| 2026-05-08 21:02 | 49.81138 | 19.55388 | 10741 ft | 328 kts | 198° |
| 2026-05-08 21:03 | 49.78906 | 19.54441 | 11264 ft | 336 kts | 198° |
| 2026-05-08 21:03 | 49.76632 | 19.53479 | 11916 ft | 341 kts | 198° |
| 2026-05-08 21:03 | 49.74336 | 19.52509 | 12637 ft | 344 kts | 198° |
| 2026-05-08 21:03 | 49.72019 | 19.51529 | 13384 ft | 347 kts | 198° |
| 2026-05-08 21:04 | 49.69672 | 19.50536 | 14087 ft | 351 kts | 198° |
| 2026-05-08 21:04 | 49.67306 | 19.49536 | 14767 ft | 354 kts | 198° |
| 2026-05-08 21:04 | 49.64917 | 19.48527 | 15460 ft | 357 kts | 198° |
| 2026-05-08 21:04 | 49.62565 | 19.47286 | 16147 ft | 358 kts | 208° |
| 2026-05-08 21:05 | 49.60419 | 19.45332 | 16866 ft | 359 kts | 218° |
| 2026-05-08 21:05 | 49.58536 | 19.42814 | 17588 ft | 359 kts | 227° |
| 2026-05-08 21:05 | 49.56810 | 19.40011 | 18266 ft | 363 kts | 228° |
| 2026-05-08 21:05 | 49.55088 | 19.37154 | 18892 ft | 365 kts | 229° |
| 2026-05-08 21:06 | 49.53357 | 19.34279 | 19517 ft | 367 kts | 229° |
| 2026-05-08 21:06 | 49.51612 | 19.31395 | 20118 ft | 369 kts | 229° |
| 2026-05-08 21:06 | 49.49853 | 19.28505 | 20719 ft | 372 kts | 229° |
| 2026-05-08 21:06 | 49.48076 | 19.25602 | 21317 ft | 374 kts | 229° |
| 2026-05-08 21:07 | 49.46286 | 19.22686 | 21909 ft | 376 kts | 229° |
| 2026-05-08 21:07 | 49.44484 | 19.19760 | 22482 ft | 378 kts | 229° |
| 2026-05-08 21:07 | 49.42672 | 19.16822 | 23067 ft | 380 kts | 229° |
| 2026-05-08 21:07 | 49.40869 | 19.13903 | 23619 ft | 383 kts | 229° |
| 2026-05-08 21:08 | 49.39032 | 19.10931 | 24098 ft | 385 kts | 229° |
| 2026-05-08 21:08 | 49.37158 | 19.07906 | 24571 ft | 386 kts | 229° |
| 2026-05-08 21:08 | 49.35327 | 19.04949 | 25034 ft | 388 kts | 229° |
| 2026-05-08 21:08 | 49.33465 | 19.01947 | 25498 ft | 390 kts | 229° |
| 2026-05-08 21:09 | 49.31589 | 18.98930 | 25886 ft | 392 kts | 229° |
| 2026-05-08 21:09 | 49.29704 | 18.95898 | 26295 ft | 394 kts | 229° |
| 2026-05-08 21:09 | 49.27804 | 18.92846 | 26685 ft | 397 kts | 229° |
| 2026-05-08 21:09 | 49.25895 | 18.89784 | 27107 ft | 398 kts | 229° |
| 2026-05-08 21:10 | 49.23975 | 18.86709 | 27529 ft | 400 kts | 229° |
| 2026-05-08 21:10 | 49.22048 | 18.83627 | 27927 ft | 402 kts | 229° |
| 2026-05-08 21:10 | 49.20110 | 18.80532 | 28309 ft | 404 kts | 229° |
| 2026-05-08 21:10 | 49.18163 | 18.77424 | 28678 ft | 406 kts | 228° |
| 2026-05-08 21:11 | 49.16204 | 18.74301 | 29034 ft | 408 kts | 228° |
| 2026-05-08 21:11 | 49.14237 | 18.71166 | 29393 ft | 410 kts | 228° |
| 2026-05-08 21:11 | 49.12260 | 18.68023 | 29751 ft | 411 kts | 228° |
| 2026-05-08 21:11 | 49.10292 | 18.64837 | 30000 ft | 414 kts | 230° |
| 2026-05-08 21:12 | 49.08458 | 18.61449 | 30319 ft | 414 kts | 232° |
| 2026-05-08 21:12 | 49.06658 | 18.58029 | 30772 ft | 411 kts | 232° |
| 2026-05-08 21:12 | 49.04885 | 18.54642 | 31310 ft | 406 kts | 232° |
| 2026-05-08 21:12 | 49.03131 | 18.51295 | 31784 ft | 403 kts | 232° |
| 2026-05-08 21:13 | 49.01383 | 18.47971 | 32180 ft | 401 kts | 232° |
| 2026-05-08 21:13 | 48.99637 | 18.44661 | 32552 ft | 400 kts | 232° |
| 2026-05-08 21:13 | 48.97894 | 18.41369 | 32945 ft | 398 kts | 232° |
| 2026-05-08 21:13 | 48.96163 | 18.38104 | 33369 ft | 395 kts | 232° |
| 2026-05-08 21:14 | 48.94437 | 18.34861 | 33755 ft | 394 kts | 232° |
| 2026-05-08 21:14 | 48.92718 | 18.31635 | 34186 ft | 391 kts | 232° |
| 2026-05-08 21:14 | 48.91008 | 18.28430 | 34443 ft | 391 kts | 232° |
| 2026-05-08 21:14 | 48.89283 | 18.25201 | 34578 ft | 395 kts | 232° |
| 2026-05-08 21:15 | 48.87546 | 18.21953 | 34728 ft | 397 kts | 232° |
| 2026-05-08 21:15 | 48.85801 | 18.18693 | 34968 ft | 398 kts | 232° |
| 2026-05-08 21:15 | 48.84056 | 18.15438 | 35170 ft | 399 kts | 232° |
| 2026-05-08 21:15 | 48.82298 | 18.12162 | 35334 ft | 401 kts | 232° |
| 2026-05-08 21:16 | 48.80534 | 18.08881 | 35524 ft | 402 kts | 232° |
| 2026-05-08 21:16 | 48.78767 | 18.05597 | 35709 ft | 403 kts | 232° |
| 2026-05-08 21:16 | 48.76992 | 18.02302 | 35886 ft | 404 kts | 232° |
| 2026-05-08 21:16 | 48.75211 | 17.98999 | 36092 ft | 405 kts | 232° |
| 2026-05-08 21:17 | 48.73426 | 17.95694 | 36281 ft | 406 kts | 232° |
| 2026-05-08 21:17 | 48.71655 | 17.92419 | 36432 ft | 408 kts | 232° |
| 2026-05-08 21:17 | 48.69858 | 17.89100 | 36638 ft | 409 kts | 232° |
| 2026-05-08 21:17 | 48.68052 | 17.85768 | 36825 ft | 410 kts | 232° |
| 2026-05-08 21:18 | 48.66241 | 17.82433 | 36982 ft | 411 kts | 232° |
| 2026-05-08 21:18 | 48.64424 | 17.79089 | 37151 ft | 412 kts | 232° |
| 2026-05-08 21:18 | 48.62602 | 17.75741 | 37327 ft | 413 kts | 232° |
| 2026-05-08 21:18 | 48.60774 | 17.72385 | 37454 ft | 415 kts | 232° |
| 2026-05-08 21:19 | 48.58931 | 17.69007 | 37531 ft | 417 kts | 232° |
| 2026-05-08 21:19 | 48.57090 | 17.65635 | 37792 ft | 416 kts | 232° |
| 2026-05-08 21:19 | 48.55250 | 17.62271 | 38027 ft | 415 kts | 232° |
| 2026-05-08 21:20 | 48.51546 | 17.55511 | 38091 ft | 421 kts | 232° |
| 2026-05-08 21:20 | 48.47772 | 17.48638 | 38107 ft | 430 kts | 232° |
| 2026-05-08 21:21 | 48.43924 | 17.41651 | 38095 ft | 436 kts | 232° |
| 2026-05-08 21:21 | 48.40030 | 17.34598 | 38086 ft | 439 kts | 231° |
| 2026-05-08 21:22 | 48.36111 | 17.27520 | 38091 ft | 441 kts | 231° |
| 2026-05-08 21:22 | 48.32174 | 17.20429 | 38082 ft | 442 kts | 231° |
| 2026-05-08 21:23 | 48.28258 | 17.13392 | 38073 ft | 435 kts | 231° |
| 2026-05-08 21:23 | 48.24399 | 17.06472 | 38081 ft | 431 kts | 231° |
| 2026-05-08 21:24 | 48.20553 | 16.99597 | 38088 ft | 429 kts | 231° |
| 2026-05-08 21:24 | 48.16171 | 16.93538 | 38108 ft | 430 kts | 218° |
| 2026-05-08 21:25 | 48.11332 | 16.88247 | 38100 ft | 431 kts | 218° |
| 2026-05-08 21:25 | 48.06484 | 16.82949 | 38098 ft | 432 kts | 218° |
| 2026-05-08 21:26 | 48.01631 | 16.77612 | 38102 ft | 434 kts | 218° |
| 2026-05-08 21:26 | 47.96768 | 16.72255 | 38099 ft | 435 kts | 218° |
| 2026-05-08 21:27 | 47.91886 | 16.66885 | 38101 ft | 436 kts | 218° |
| 2026-05-08 21:27 | 47.86994 | 16.61515 | 38092 ft | 437 kts | 218° |
| 2026-05-08 21:28 | 47.82122 | 16.56182 | 38087 ft | 438 kts | 218° |
| 2026-05-08 21:28 | 47.77204 | 16.50812 | 38089 ft | 439 kts | 218° |
| 2026-05-08 21:29 | 47.72282 | 16.45450 | 38091 ft | 439 kts | 218° |
| 2026-05-08 21:29 | 47.67351 | 16.40091 | 38091 ft | 439 kts | 218° |
| 2026-05-08 21:30 | 47.62415 | 16.34739 | 38090 ft | 440 kts | 218° |
| 2026-05-08 21:30 | 47.57478 | 16.29400 | 38091 ft | 439 kts | 218° |
| 2026-05-08 21:31 | 47.52542 | 16.24073 | 38093 ft | 439 kts | 218° |
| 2026-05-08 21:31 | 47.47602 | 16.18757 | 38088 ft | 439 kts | 218° |
| 2026-05-08 21:32 | 47.42663 | 16.13452 | 38098 ft | 439 kts | 218° |
| 2026-05-08 21:32 | 47.37716 | 16.08151 | 38104 ft | 440 kts | 218° |
| 2026-05-08 21:33 | 47.32765 | 16.02859 | 38097 ft | 440 kts | 217° |
| 2026-05-08 21:33 | 47.27807 | 15.97573 | 38092 ft | 440 kts | 217° |
| 2026-05-08 21:34 | 47.22850 | 15.92300 | 38098 ft | 440 kts | 217° |
| 2026-05-08 21:34 | 47.17889 | 15.87036 | 38094 ft | 440 kts | 217° |
| 2026-05-08 21:35 | 47.12923 | 15.81777 | 38107 ft | 440 kts | 217° |
| 2026-05-08 21:35 | 47.07985 | 15.76561 | 38092 ft | 440 kts | 217° |
| 2026-05-08 21:36 | 47.03018 | 15.71328 | 38101 ft | 440 kts | 217° |
| 2026-05-08 21:36 | 46.98051 | 15.66105 | 38101 ft | 439 kts | 217° |
| 2026-05-08 21:37 | 46.93083 | 15.60894 | 38088 ft | 439 kts | 217° |
| 2026-05-08 21:37 | 46.88113 | 15.55693 | 38102 ft | 439 kts | 217° |
| 2026-05-08 21:38 | 46.83139 | 15.50500 | 38098 ft | 439 kts | 217° |
| 2026-05-08 21:38 | 46.78165 | 15.45319 | 38094 ft | 439 kts | 217° |
| 2026-05-08 21:39 | 46.73187 | 15.40146 | 38092 ft | 439 kts | 217° |
| 2026-05-08 21:39 | 46.68206 | 15.34981 | 38098 ft | 440 kts | 217° |
| 2026-05-08 21:40 | 46.63220 | 15.29823 | 38105 ft | 440 kts | 217° |
| 2026-05-08 21:40 | 46.58228 | 15.24671 | 38095 ft | 440 kts | 217° |
| 2026-05-08 21:41 | 46.50732 | 15.16957 | 38093 ft | 440 kts | 217° |
| 2026-05-08 21:41 | 46.45725 | 15.11820 | 38089 ft | 441 kts | 217° |
| 2026-05-08 21:42 | 46.40714 | 15.06690 | 38105 ft | 441 kts | 217° |
| 2026-05-08 21:42 | 46.35701 | 15.01570 | 38095 ft | 441 kts | 217° |
| 2026-05-08 21:43 | 46.30687 | 14.96460 | 38100 ft | 441 kts | 217° |
| 2026-05-08 21:43 | 46.25666 | 14.91355 | 38109 ft | 441 kts | 217° |
| 2026-05-08 21:44 | 46.20677 | 14.86293 | 38103 ft | 441 kts | 217° |
| 2026-05-08 21:44 | 46.15649 | 14.81205 | 38092 ft | 441 kts | 218° |
| 2026-05-08 21:45 | 46.10623 | 14.76130 | 38106 ft | 441 kts | 218° |
| 2026-05-08 21:45 | 46.05594 | 14.71063 | 38097 ft | 441 kts | 218° |
| 2026-05-08 21:46 | 46.00560 | 14.66002 | 38092 ft | 441 kts | 218° |
| 2026-05-08 21:46 | 45.95534 | 14.60961 | 38098 ft | 441 kts | 218° |
| 2026-05-08 21:47 | 45.90505 | 14.55928 | 38101 ft | 440 kts | 218° |
| 2026-05-08 21:47 | 45.85478 | 14.50908 | 38102 ft | 440 kts | 218° |
| 2026-05-08 21:48 | 45.80448 | 14.45897 | 38105 ft | 440 kts | 218° |
| 2026-05-08 21:48 | 45.75412 | 14.40891 | 38107 ft | 441 kts | 218° |
| 2026-05-08 21:49 | 45.71224 | 14.36736 | 38100 ft | 441 kts | 218° |
| 2026-05-08 21:49 | 45.66181 | 14.31743 | 38097 ft | 441 kts | 218° |
| 2026-05-08 21:50 | 45.61141 | 14.26763 | 38103 ft | 441 kts | 218° |
| 2026-05-08 21:50 | 45.56096 | 14.21790 | 38091 ft | 441 kts | 218° |
| 2026-05-08 21:51 | 45.51049 | 14.16825 | 38097 ft | 440 kts | 218° |
| 2026-05-08 21:51 | 45.45863 | 14.12159 | 38084 ft | 444 kts | 209° |
| 2026-05-08 21:52 | 45.40223 | 14.08552 | 38103 ft | 445 kts | 208° |
| 2026-05-08 21:52 | 45.34568 | 14.04993 | 38087 ft | 444 kts | 208° |
| 2026-05-08 21:53 | 45.28931 | 14.01406 | 38072 ft | 443 kts | 208° |
| 2026-05-08 21:53 | 45.23317 | 13.97813 | 38086 ft | 442 kts | 209° |
| 2026-05-08 21:54 | 45.17713 | 13.94226 | 38080 ft | 442 kts | 208° |
| 2026-05-08 21:54 | 45.12114 | 13.90650 | 38082 ft | 441 kts | 208° |
| 2026-05-08 21:55 | 45.06521 | 13.87087 | 38076 ft | 440 kts | 209° |
| 2026-05-08 21:56 | 44.98142 | 13.81764 | 38080 ft | 440 kts | 209° |
| 2026-05-08 21:56 | 44.92553 | 13.78223 | 38059 ft | 440 kts | 209° |
| 2026-05-08 21:57 | 44.86974 | 13.74697 | 38076 ft | 439 kts | 209° |
| 2026-05-08 21:57 | 44.81402 | 13.71181 | 38078 ft | 439 kts | 209° |
| 2026-05-08 21:58 | 44.75831 | 13.67675 | 38080 ft | 438 kts | 209° |
| 2026-05-08 21:58 | 44.70268 | 13.64180 | 38076 ft | 438 kts | 208° |
| 2026-05-08 21:59 | 44.64753 | 13.60702 | 38081 ft | 437 kts | 209° |
| 2026-05-08 21:59 | 44.59201 | 13.57226 | 38082 ft | 437 kts | 209° |
| 2026-05-08 22:00 | 44.53640 | 13.53778 | 38079 ft | 436 kts | 208° |
| 2026-05-08 22:00 | 44.48094 | 13.50324 | 38085 ft | 436 kts | 208° |
| 2026-05-08 22:01 | 44.42561 | 13.46857 | 38085 ft | 435 kts | 211° |
| 2026-05-08 22:01 | 44.37552 | 13.42295 | 38083 ft | 429 kts | 220° |
| 2026-05-08 22:02 | 44.32749 | 13.37352 | 38088 ft | 429 kts | 220° |
| 2026-05-08 22:02 | 44.27928 | 13.32432 | 38084 ft | 430 kts | 220° |
| 2026-05-08 22:03 | 44.23089 | 13.27532 | 38085 ft | 430 kts | 219° |
| 2026-05-08 22:03 | 44.18241 | 13.22646 | 38075 ft | 430 kts | 219° |
| 2026-05-08 22:04 | 44.13390 | 13.17769 | 38083 ft | 430 kts | 219° |
| 2026-05-08 22:04 | 44.08535 | 13.12897 | 38084 ft | 431 kts | 219° |
| 2026-05-08 22:05 | 44.03667 | 13.08023 | 38086 ft | 431 kts | 219° |
| 2026-05-08 22:05 | 43.98792 | 13.03151 | 38085 ft | 432 kts | 219° |
| 2026-05-08 22:06 | 43.93906 | 12.98278 | 38083 ft | 432 kts | 219° |
| 2026-05-08 22:06 | 43.89017 | 12.93413 | 38082 ft | 433 kts | 219° |
| 2026-05-08 22:07 | 43.84124 | 12.88553 | 38081 ft | 433 kts | 219° |
| 2026-05-08 22:07 | 43.79257 | 12.83729 | 38088 ft | 433 kts | 219° |
| 2026-05-08 22:08 | 43.74356 | 12.78882 | 38080 ft | 433 kts | 219° |
| 2026-05-08 22:08 | 43.69445 | 12.74034 | 38085 ft | 434 kts | 219° |
| 2026-05-08 22:09 | 43.64535 | 12.69198 | 38105 ft | 434 kts | 219° |
| 2026-05-08 22:09 | 43.59619 | 12.64365 | 38090 ft | 434 kts | 219° |
| 2026-05-08 22:10 | 43.54697 | 12.59537 | 38102 ft | 435 kts | 219° |
| 2026-05-08 22:10 | 43.49770 | 12.54713 | 38115 ft | 434 kts | 219° |
| 2026-05-08 22:11 | 43.44839 | 12.49895 | 38104 ft | 435 kts | 219° |
| 2026-05-08 22:11 | 43.39903 | 12.45082 | 38099 ft | 435 kts | 218° |
| 2026-05-08 22:12 | 43.34969 | 12.40281 | 38086 ft | 434 kts | 219° |
| 2026-05-08 22:12 | 43.30033 | 12.35488 | 38093 ft | 435 kts | 218° |
| 2026-05-08 22:13 | 43.25084 | 12.30692 | 38080 ft | 436 kts | 218° |
| 2026-05-08 22:13 | 43.20125 | 12.25896 | 38089 ft | 437 kts | 218° |
| 2026-05-08 22:14 | 43.15157 | 12.21101 | 38076 ft | 437 kts | 219° |
| 2026-05-08 22:14 | 43.10186 | 12.16313 | 38103 ft | 437 kts | 219° |
| 2026-05-08 22:15 | 43.05247 | 12.11565 | 38098 ft | 437 kts | 218° |
| 2026-05-08 22:15 | 43.00238 | 12.06761 | 38092 ft | 437 kts | 218° |
| 2026-05-08 22:16 | 42.95298 | 12.02031 | 38090 ft | 436 kts | 219° |
| 2026-05-08 22:16 | 42.90331 | 11.97285 | 38090 ft | 435 kts | 219° |
| 2026-05-08 22:17 | 42.85374 | 11.92558 | 38088 ft | 434 kts | 219° |
| 2026-05-08 22:17 | 42.80423 | 11.87847 | 38079 ft | 434 kts | 219° |
| 2026-05-08 22:18 | 42.75480 | 11.83153 | 38087 ft | 433 kts | 219° |
| 2026-05-08 22:18 | 42.70545 | 11.78475 | 38089 ft | 432 kts | 219° |
| 2026-05-08 22:19 | 42.65611 | 11.73807 | 38088 ft | 432 kts | 219° |
| 2026-05-08 22:19 | 42.60681 | 11.69152 | 38077 ft | 431 kts | 219° |
| 2026-05-08 22:20 | 42.55754 | 11.64508 | 38085 ft | 431 kts | 219° |
| 2026-05-08 22:20 | 42.50825 | 11.59873 | 38075 ft | 431 kts | 219° |
| 2026-05-08 22:21 | 42.45898 | 11.55248 | 38080 ft | 431 kts | 219° |
| 2026-05-08 22:21 | 42.40972 | 11.50634 | 38075 ft | 430 kts | 219° |
| 2026-05-08 22:22 | 42.36055 | 11.46037 | 38073 ft | 429 kts | 218° |
| 2026-05-08 22:22 | 42.31143 | 11.41453 | 38078 ft | 429 kts | 218° |
| 2026-05-08 22:23 | 42.26231 | 11.36878 | 38072 ft | 429 kts | 218° |
| 2026-05-08 22:23 | 42.21322 | 11.32314 | 38074 ft | 429 kts | 218° |
| 2026-05-08 22:24 | 42.16409 | 11.27756 | 38076 ft | 429 kts | 219° |
| 2026-05-08 22:24 | 42.11494 | 11.23205 | 38070 ft | 429 kts | 218° |
| 2026-05-08 22:25 | 42.06577 | 11.18660 | 38050 ft | 429 kts | 219° |
| 2026-05-08 22:25 | 42.01696 | 11.14158 | 38064 ft | 428 kts | 219° |
| 2026-05-08 22:26 | 41.96748 | 11.09602 | 38065 ft | 428 kts | 219° |
| 2026-05-08 22:26 | 41.94317 | 11.07366 | 37787 ft | 433 kts | 218° |
| 2026-05-08 22:26 | 41.91825 | 11.05075 | 37304 ft | 435 kts | 218° |
| 2026-05-08 22:26 | 41.89329 | 11.02784 | 36729 ft | 434 kts | 218° |
| 2026-05-08 22:27 | 41.86842 | 11.00505 | 36136 ft | 433 kts | 218° |
| 2026-05-08 22:27 | 41.84356 | 10.98230 | 35519 ft | 432 kts | 218° |
| 2026-05-08 22:27 | 41.81870 | 10.95956 | 34900 ft | 433 kts | 218° |
| 2026-05-08 22:27 | 41.79369 | 10.93668 | 34261 ft | 438 kts | 217° |
| 2026-05-08 22:28 | 41.76844 | 10.91360 | 33492 ft | 440 kts | 217° |
| 2026-05-08 22:28 | 41.74313 | 10.89051 | 32761 ft | 440 kts | 217° |
| 2026-05-08 22:28 | 41.71774 | 10.86738 | 32039 ft | 443 kts | 217° |
| 2026-05-08 22:28 | 41.69210 | 10.84403 | 31306 ft | 448 kts | 217° |
| 2026-05-08 22:29 | 41.66626 | 10.82052 | 30540 ft | 450 kts | 217° |
| 2026-05-08 22:29 | 41.64044 | 10.79706 | 29703 ft | 447 kts | 217° |
| 2026-05-08 22:29 | 41.61482 | 10.77382 | 28809 ft | 445 kts | 217° |
| 2026-05-08 22:29 | 41.58932 | 10.75072 | 28157 ft | 439 kts | 217° |
| 2026-05-08 22:30 | 41.56420 | 10.72798 | 27524 ft | 433 kts | 217° |
| 2026-05-08 22:30 | 41.53942 | 10.70557 | 26934 ft | 428 kts | 217° |
| 2026-05-08 22:30 | 41.51496 | 10.68346 | 26354 ft | 422 kts | 218° |
| 2026-05-08 22:30 | 41.49080 | 10.66163 | 25774 ft | 417 kts | 218° |
| 2026-05-08 22:31 | 41.46689 | 10.64005 | 25217 ft | 413 kts | 218° |
| 2026-05-08 22:31 | 41.44323 | 10.61871 | 24667 ft | 409 kts | 218° |
| 2026-05-08 22:31 | 41.41976 | 10.59755 | 24103 ft | 406 kts | 218° |
| 2026-05-08 22:31 | 41.39645 | 10.57655 | 23513 ft | 403 kts | 218° |
| 2026-05-08 22:32 | 41.37330 | 10.55571 | 22874 ft | 400 kts | 218° |
| 2026-05-08 22:32 | 41.35037 | 10.53510 | 22304 ft | 396 kts | 218° |
| 2026-05-08 22:32 | 41.32767 | 10.51472 | 21755 ft | 391 kts | 218° |
| 2026-05-08 22:32 | 41.30523 | 10.49459 | 21216 ft | 387 kts | 218° |
| 2026-05-08 22:33 | 41.28297 | 10.47463 | 20672 ft | 384 kts | 218° |
| 2026-05-08 22:33 | 41.26094 | 10.45489 | 20158 ft | 380 kts | 218° |
| 2026-05-08 22:33 | 41.23909 | 10.43534 | 19641 ft | 377 kts | 218° |
| 2026-05-08 22:33 | 41.21739 | 10.41592 | 19130 ft | 375 kts | 218° |
| 2026-05-08 22:34 | 41.19584 | 10.39666 | 18619 ft | 372 kts | 218° |
| 2026-05-08 22:34 | 41.17468 | 10.37776 | 18076 ft | 370 kts | 218° |
| 2026-05-08 22:34 | 41.15337 | 10.35873 | 17508 ft | 368 kts | 218° |
| 2026-05-08 22:34 | 41.13218 | 10.33984 | 16979 ft | 366 kts | 218° |
| 2026-05-08 22:35 | 41.11114 | 10.32109 | 16458 ft | 363 kts | 218° |
| 2026-05-08 22:35 | 41.09022 | 10.30247 | 15938 ft | 361 kts | 218° |
| 2026-05-08 22:35 | 41.06941 | 10.28396 | 15441 ft | 359 kts | 218° |
| 2026-05-08 22:35 | 41.04871 | 10.26555 | 14957 ft | 357 kts | 218° |
| 2026-05-08 22:36 | 41.02810 | 10.24724 | 14457 ft | 356 kts | 218° |
| 2026-05-08 22:36 | 41.00758 | 10.22901 | 13971 ft | 355 kts | 218° |
| 2026-05-08 22:36 | 40.98708 | 10.21083 | 13428 ft | 354 kts | 217° |
| 2026-05-08 22:36 | 40.96667 | 10.19274 | 12908 ft | 352 kts | 217° |
| 2026-05-08 22:37 | 40.94681 | 10.17404 | 12402 ft | 348 kts | 225° |
| 2026-05-08 22:37 | 40.93248 | 10.14881 | 11927 ft | 341 kts | 245° |
| 2026-05-08 22:37 | 40.92503 | 10.11935 | 11441 ft | 338 kts | 262° |
| 2026-05-08 22:37 | 40.92419 | 10.08865 | 11138 ft | 326 kts | 275° |
| 2026-05-08 22:38 | 40.92783 | 10.06009 | 10981 ft | 305 kts | 285° |
| 2026-05-08 22:38 | 40.93224 | 10.04286 | 10897 ft | 293 kts | 292° |
| 2026-05-08 22:38 | 40.94069 | 10.01910 | 10638 ft | 281 kts | 296° |
| 2026-05-08 22:38 | 40.94941 | 9.99603 | 10109 ft | 281 kts | 296° |
| 2026-05-08 22:39 | 40.95823 | 9.97286 | 9474 ft | 283 kts | 297° |
| 2026-05-08 22:39 | 40.96703 | 9.94959 | 8963 ft | 281 kts | 297° |
| 2026-05-08 22:39 | 40.97570 | 9.92653 | 8437 ft | 279 kts | 296° |
| 2026-05-08 22:39 | 40.98430 | 9.90351 | 7926 ft | 278 kts | 297° |
| 2026-05-08 22:40 | 40.99285 | 9.88057 | 7406 ft | 277 kts | 297° |
| 2026-05-08 22:40 | 41.00135 | 9.85769 | 6916 ft | 276 kts | 297° |
| 2026-05-08 22:40 | 41.00980 | 9.83490 | 6414 ft | 276 kts | 297° |
| 2026-05-08 22:40 | 41.01822 | 9.81213 | 5901 ft | 275 kts | 297° |
| 2026-05-08 22:41 | 41.02607 | 9.78916 | 5403 ft | 273 kts | 286° |
| 2026-05-08 22:41 | 41.02598 | 9.76442 | 4960 ft | 270 kts | 249° |
| 2026-05-08 22:41 | 41.01667 | 9.74394 | 4889 ft | 251 kts | 233° |
| 2026-05-08 22:41 | 41.00704 | 9.72575 | 4781 ft | 231 kts | 235° |
| 2026-05-08 22:42 | 40.99838 | 9.70901 | 4629 ft | 210 kts | 235° |
| 2026-05-08 22:42 | 40.99045 | 9.69372 | 4472 ft | 193 kts | 235° |
| 2026-05-08 22:42 | 40.98295 | 9.67939 | 4179 ft | 183 kts | 235° |
| 2026-05-08 22:42 | 40.97613 | 9.66624 | 3861 ft | 170 kts | 236° |
| 2026-05-08 22:43 | 40.96936 | 9.65325 | 3351 ft | 172 kts | 236° |
| 2026-05-08 22:43 | 40.96257 | 9.64017 | 2863 ft | 171 kts | 236° |
| 2026-05-08 22:43 | 40.95595 | 9.62731 | 2404 ft | 168 kts | 236° |
| 2026-05-08 22:43 | 40.94934 | 9.61477 | 2018 ft | 163 kts | 235° |
| 2026-05-08 22:44 | 40.94290 | 9.60275 | 1657 ft | 157 kts | 235° |
| 2026-05-08 22:44 | 40.93691 | 9.59092 | 1279 ft | 154 kts | 237° |
| 2026-05-08 22:44 | 40.93096 | 9.57937 | 910 ft | 150 kts | 235° |
| 2026-05-08 22:44 | 40.92507 | 9.56818 | 591 ft | 147 kts | 235° |
| 2026-05-08 22:45 | 40.91926 | 9.55705 | 400 ft | 147 kts | 236° |
| 2026-05-08 22:45 | 40.91320 | 9.54552 | 304 ft | 154 kts | 236° |
| 2026-05-08 22:45 | 40.90721 | 9.53404 | 114 ft | 152 kts | 236° |
| 2026-05-08 22:45 | 40.90147 | 9.52298 | 34 ft | 137 kts | 236° |
| 2026-05-08 22:46 | 40.89683 | 9.51413 | 33 ft | 86 kts | 235° |
| 2026-05-08 22:46 | 40.89393 | 9.50862 | 31 ft | 54 kts | 235° |
| 2026-05-08 22:46 | 40.89274 | 9.50624 | 34 ft | 20 kts | 248° |
| 2026-05-08 22:46 | 40.89298 | 9.50453 | 33 ft | 14 kts | 310° |
| 2026-05-08 22:47 | 40.89342 | 9.50441 | 33 ft | 6 kts | 8° |
| 2026-05-08 22:47 | 40.89382 | 9.50460 | 31 ft | 6 kts | 33° |
| 2026-05-08 22:47 | 40.89409 | 9.50503 | 33 ft | 7 kts | 53° |
| 2026-05-08 22:47 | 40.89454 | 9.50587 | 33 ft | 14 kts | 55° |
| 2026-05-08 22:48 | 40.89509 | 9.50691 | 33 ft | 14 kts | 55° |
| 2026-05-08 22:48 | 40.89562 | 9.50791 | 33 ft | 13 kts | 55° |
| 2026-05-08 22:48 | 40.89612 | 9.50888 | 33 ft | 13 kts | 55° |
| 2026-05-08 22:48 | 40.89662 | 9.50982 | 33 ft | 12 kts | 55° |
| 2026-05-08 22:49 | 40.89710 | 9.51075 | 33 ft | 12 kts | 55° |
| 2026-05-08 22:49 | 40.89803 | 9.51252 | 33 ft | 11 kts | 55° |
| 2026-05-08 22:49 | 40.89848 | 9.51337 | 33 ft | 11 kts | 55° |
| 2026-05-08 22:50 | 40.89891 | 9.51420 | 33 ft | 12 kts | 55° |
| 2026-05-08 22:50 | 40.89951 | 9.51534 | 33 ft | 19 kts | 55° |
| 2026-05-08 22:50 | 40.90027 | 9.51680 | 32 ft | 19 kts | 55° |
| 2026-05-08 22:50 | 40.90096 | 9.51810 | 33 ft | 15 kts | 55° |
| 2026-05-08 22:51 | 40.90151 | 9.51881 | 33 ft | 9 kts | 4° |
| 2026-05-08 22:51 | 40.90191 | 9.51822 | 33 ft | 9 kts | 291° |
| 2026-05-08 22:51 | 40.90236 | 9.51793 | 33 ft | 7 kts | 17° |
| 2026-05-08 22:51 | 40.90266 | 9.51841 | 33 ft | 7 kts | 54° |
| 2026-05-08 22:52 | 40.90288 | 9.51861 | 33 ft | 3 kts | 359° |
| 2026-05-08 22:52 | 40.90308 | 9.51844 | 33 ft | 3 kts | 324° |
| 2026-05-08 22:52 | 40.90326 | 9.51832 | 33 ft | 1 kts | 353° |
| 2026-05-08 22:52 | 40.90334 | 9.51834 | 33 ft | 3 kts | 11° |
| 2026-05-08 22:53 | 40.90341 | 9.51837 | 33 ft | 0 kts | 15° |